createdAt,value
2022-11-24T00:00:52.150Z,3.40
2022-11-24T00:03:19.043Z,3.55
2022-11-24T00:05:45.828Z,4.07
2022-11-24T00:08:12.547Z,3.75
2022-11-24T00:10:39.339Z,3.55
2022-11-24T00:13:06.002Z,3.72
2022-11-24T00:15:32.613Z,3.83
2022-11-24T00:17:59.227Z,3.67
2022-11-24T00:20:25.839Z,3.38
2022-11-24T00:22:52.457Z,3.55
2022-11-24T00:25:19.077Z,3.17
2022-11-24T00:27:45.696Z,3.33
2022-11-24T00:30:12.547Z,3.47
2022-11-24T00:32:39.153Z,3.78
2022-11-24T00:35:06.483Z,3.40
2022-11-24T00:37:33.115Z,3.28
2022-11-24T00:39:59.742Z,3.47
2022-11-24T00:42:26.352Z,3.45
2022-11-24T00:44:52.951Z,2.85
2022-11-24T00:47:19.603Z,3.78
2022-11-24T00:49:46.255Z,3.15
2022-11-24T00:52:12.899Z,2.97
2022-11-24T00:54:39.513Z,2.78
2022-11-24T00:57:06.140Z,3.40
2022-11-24T00:59:32.815Z,2.78
2022-11-24T01:01:59.505Z,3.53
2022-11-24T01:04:26.219Z,3.15
2022-11-24T01:06:52.849Z,3.35
2022-11-24T01:09:19.561Z,3.67
2022-11-24T01:12:01.192Z,6.93
2022-11-24T01:14:28.531Z,3.25
2022-11-24T01:16:55.596Z,3.20
2022-11-24T01:19:22.751Z,3.55
2022-11-24T01:21:49.673Z,3.30
2022-11-24T01:24:16.488Z,3.78
2022-11-24T01:26:43.220Z,3.28
2022-11-24T01:29:11.748Z,3.38
2022-11-24T01:31:38.861Z,3.47
2022-11-24T01:34:05.624Z,3.95
2022-11-24T01:36:32.306Z,3.58
2022-11-24T01:38:58.926Z,3.47
2022-11-24T01:41:26.511Z,4.75
2022-11-24T01:43:54.985Z,3.20
2022-11-24T01:46:28.408Z,3.88
2022-11-24T01:49:18.661Z,3.47
2022-11-24T01:52:08.483Z,2.97
2022-11-24T01:54:43.677Z,3.42
2022-11-24T01:57:26.126Z,3.35
2022-11-24T02:00:05.935Z,2.95
2022-11-24T02:02:32.984Z,2.70
2022-11-24T02:05:06.075Z,3.42
2022-11-24T02:07:33.666Z,3.03
2022-11-24T02:10:04.078Z,2.60
2022-11-24T02:12:32.129Z,2.67
2022-11-24T02:14:59.254Z,3.35
2022-11-24T02:17:25.886Z,3.08
2022-11-24T02:19:58.404Z,2.83
2022-11-24T02:22:34.079Z,3.28
2022-11-24T02:25:11.868Z,2.10
2022-11-24T02:27:38.534Z,2.00
2022-11-24T02:30:05.579Z,2.63
2022-11-24T02:32:33.858Z,2.20
2022-11-24T02:35:02.045Z,2.47
2022-11-24T02:37:28.711Z,2.75
2022-11-24T02:39:55.364Z,2.58
2022-11-24T02:42:22.501Z,2.28
2022-11-24T02:44:53.327Z,2.78
2022-11-24T02:47:19.949Z,2.00
2022-11-24T02:49:46.592Z,2.45
2022-11-24T02:52:13.977Z,3.08
2022-11-24T02:54:40.631Z,2.92
2022-11-24T02:57:07.478Z,2.42
2022-11-24T02:59:34.109Z,2.58
2022-11-24T03:02:00.981Z,2.50
2022-11-24T03:04:27.800Z,2.35
2022-11-24T03:06:54.484Z,2.47
2022-11-24T03:09:21.170Z,2.33
2022-11-24T03:11:47.882Z,2.50
2022-11-24T03:14:14.543Z,3.47
2022-11-24T03:16:41.285Z,2.25
2022-11-24T03:19:07.941Z,2.10
2022-11-24T03:21:36.873Z,2.25
2022-11-24T03:24:03.910Z,2.10
2022-11-24T03:26:30.522Z,2.65
2022-11-24T03:28:57.272Z,3.10
2022-11-24T03:31:24.576Z,2.55
2022-11-24T03:33:51.389Z,2.05
2022-11-24T03:36:18.638Z,2.00
2022-11-24T03:38:45.566Z,2.60
2022-11-24T03:41:12.267Z,2.00
2022-11-24T03:43:43.427Z,2.20
2022-11-24T03:46:11.449Z,2.15
2022-11-24T03:48:38.092Z,1.92
2022-11-24T03:51:04.904Z,2.67
2022-11-24T03:53:33.577Z,2.90
2022-11-24T03:56:01.900Z,2.05
2022-11-24T03:58:29.231Z,3.85
2022-11-24T04:00:56.236Z,2.42
2022-11-24T04:03:23.573Z,2.10
2022-11-24T04:05:50.231Z,2.17
2022-11-24T04:08:17.291Z,2.85
2022-11-24T04:10:44.346Z,1.92
2022-11-24T04:13:16.393Z,2.55
2022-11-24T04:15:43.676Z,2.50
2022-11-24T04:18:11.497Z,2.95
2022-11-24T04:20:38.652Z,2.72
2022-11-24T04:23:05.377Z,2.55
2022-11-24T04:25:32.338Z,2.60
2022-11-24T04:27:58.949Z,2.92
2022-11-24T04:30:27.687Z,2.70
2022-11-24T04:32:54.344Z,2.78
2022-11-24T04:35:21.659Z,2.90
2022-11-24T04:37:48.379Z,2.75
2022-11-24T04:40:15.702Z,2.80
2022-11-24T04:42:42.264Z,3.17
2022-11-24T04:45:10.348Z,3.85
2022-11-24T04:47:36.966Z,2.75
2022-11-24T04:50:04.766Z,3.22
2022-11-24T04:52:31.341Z,2.45
2022-11-24T04:54:57.957Z,3.42
2022-11-24T04:57:26.357Z,4.10
2022-11-24T04:59:54.363Z,3.35
2022-11-24T05:02:21.489Z,3.20
2022-11-24T05:04:48.155Z,2.78
2022-11-24T05:07:18.706Z,3.40
2022-11-24T05:10:05.042Z,2.73
2022-11-24T05:12:31.664Z,2.40
2022-11-24T05:14:59.467Z,2.35
2022-11-24T05:17:30.816Z,1.95
2022-11-24T05:19:57.885Z,1.52
2022-11-24T05:22:24.987Z,1.08
2022-11-24T05:24:51.622Z,1.58
2022-11-24T05:27:18.338Z,1.27
2022-11-24T05:29:45.011Z,0.93
2022-11-24T05:32:11.712Z,0.90
2022-11-24T05:34:38.331Z,0.70
2022-11-24T05:37:05.288Z,0.70
2022-11-24T05:39:33.535Z,0.70
2022-11-24T05:42:22.282Z,0.70
2022-11-24T05:44:49.174Z,0.80
2022-11-24T05:47:15.775Z,0.80
2022-11-24T05:49:42.509Z,0.40
2022-11-24T05:52:09.823Z,0.75
2022-11-24T05:54:36.714Z,0.70
2022-11-24T05:57:03.601Z,0.80
2022-11-24T05:59:30.317Z,0.57
2022-11-24T06:01:57.024Z,0.75
2022-11-24T06:04:23.734Z,0.77
2022-11-24T06:06:50.809Z,0.82
2022-11-24T06:09:17.576Z,1.10
2022-11-24T06:11:44.216Z,0.68
2022-11-24T06:14:11.540Z,0.95
2022-11-24T06:16:38.497Z,1.35
2022-11-24T06:19:05.199Z,0.73
2022-11-24T06:21:31.992Z,0.73
2022-11-24T06:23:58.798Z,0.93
2022-11-24T06:26:25.453Z,1.00
2022-11-24T06:28:52.065Z,1.05
2022-11-24T06:31:18.713Z,1.13
2022-11-24T06:33:45.474Z,1.05
2022-11-24T06:36:14.052Z,1.63
2022-11-24T06:38:40.959Z,1.30
2022-11-24T06:41:12.042Z,1.40
2022-11-24T06:43:39.014Z,1.77
2022-11-24T06:46:05.934Z,1.70
2022-11-24T06:48:33.157Z,1.85
2022-11-24T06:51:05.582Z,1.60
2022-11-24T06:53:39.608Z,2.30
2022-11-24T06:56:16.202Z,2.40
2022-11-24T06:58:48.351Z,2.47
2022-11-24T07:01:23.248Z,2.72
2022-11-24T07:03:51.231Z,2.83
2022-11-24T07:06:18.917Z,2.80
2022-11-24T07:08:46.403Z,2.97
2022-11-24T07:11:16.736Z,3.40
2022-11-24T07:13:45.248Z,3.90
2022-11-24T07:16:12.019Z,4.35
2022-11-24T07:18:38.622Z,4.22
2022-11-24T07:21:05.758Z,5.13
2022-11-24T07:23:32.458Z,4.47
2022-11-24T07:26:03.712Z,4.53
2022-11-24T07:28:34.062Z,4.32
2022-11-24T07:31:08.726Z,4.20
2022-11-24T07:33:35.907Z,4.65
2022-11-24T07:36:04.397Z,4.88
2022-11-24T07:38:31.657Z,4.65
2022-11-24T07:41:09.883Z,5.22
2022-11-24T07:43:37.947Z,5.28
2022-11-24T07:46:06.438Z,5.63
2022-11-24T07:48:33.951Z,5.55
2022-11-24T07:51:01.950Z,5.47
2022-11-24T07:53:29.021Z,5.85
2022-11-24T07:56:00.605Z,6.05
2022-11-24T07:58:32.601Z,6.47
2022-11-24T08:01:00.427Z,6.03
2022-11-24T08:03:27.379Z,5.70
2022-11-24T08:06:22.380Z,5.78
2022-11-24T08:08:42.526Z,5.28
2022-11-24T08:11:12.529Z,5.82
2022-11-24T08:13:39.538Z,5.97
2022-11-24T08:16:09.017Z,5.30
2022-11-24T08:18:37.229Z,5.50
2022-11-24T08:21:04.359Z,4.60
2022-11-24T08:23:31.873Z,5.07
2022-11-24T08:26:04.704Z,5.40
2022-11-24T08:28:32.356Z,5.03
2022-11-24T08:31:07.655Z,5.40
2022-11-24T08:33:34.407Z,4.45
2022-11-24T08:36:05.498Z,5.13
2022-11-24T08:38:32.233Z,5.35
2022-11-24T08:41:03.825Z,5.82
2022-11-24T08:43:30.507Z,4.78
2022-11-24T08:46:08.908Z,4.75
2022-11-24T08:48:36.558Z,5.85
2022-11-24T08:51:12.355Z,5.50
2022-11-24T08:53:39.582Z,4.63
2022-11-24T08:56:07.332Z,4.70
2022-11-24T08:58:34.463Z,4.30
2022-11-24T09:01:06.817Z,5.38
2022-11-24T09:03:34.352Z,4.90
2022-11-24T09:06:01.717Z,4.53
2022-11-24T09:08:30.492Z,4.75
2022-11-24T09:11:12.499Z,4.43
2022-11-24T09:16:11.902Z,4.78
2022-11-24T09:18:38.859Z,3.78
2022-11-24T09:21:15.445Z,4.07
2022-11-24T09:23:43.142Z,4.03
2022-11-24T09:26:13.077Z,4.22
2022-11-24T09:28:40.942Z,3.85
2022-11-24T09:31:11.191Z,4.47
2022-11-24T09:33:38.714Z,3.88
2022-11-24T09:36:06.316Z,3.58
2022-11-24T09:38:33.364Z,3.28
2022-11-24T09:41:14.940Z,3.65
2022-11-24T09:44:04.757Z,3.22
2022-11-24T09:46:50.033Z,3.50
2022-11-24T09:49:24.473Z,3.95
2022-11-24T09:51:54.944Z,2.63
2022-11-24T09:54:27.950Z,2.67
2022-11-24T09:56:57.446Z,2.55
2022-11-24T09:59:26.197Z,2.80
2022-11-24T10:01:53.664Z,3.03
2022-11-24T10:04:28.727Z,3.30
2022-11-24T10:07:03.306Z,3.00
2022-11-24T10:09:53.807Z,2.03
2022-11-24T10:12:30.742Z,2.38
2022-11-24T10:15:21.522Z,2.25
2022-11-24T10:18:03.256Z,1.88
2022-11-24T10:20:54.702Z,2.05
2022-11-24T10:23:43.636Z,1.75
2022-11-24T10:26:34.686Z,2.15
2022-11-24T10:29:02.563Z,2.83
2022-11-24T10:31:34.391Z,2.30
2022-11-24T10:34:23.712Z,2.80
2022-11-24T10:37:11.593Z,2.58
2022-11-24T10:39:59.885Z,2.92
2022-11-24T10:42:33.334Z,2.55
2022-11-24T10:45:11.956Z,2.00
2022-11-24T10:47:39.530Z,2.83
2022-11-24T10:50:23.460Z,2.63
2022-11-24T10:53:21.132Z,3.10
2022-11-24T10:55:57.006Z,2.33
2022-11-24T10:58:37.751Z,2.47
2022-11-24T11:01:14.263Z,2.42
2022-11-24T11:03:55.675Z,2.78
2022-11-24T11:06:23.352Z,2.80
2022-11-24T11:08:49.943Z,3.42
2022-11-24T11:11:28.422Z,3.15
2022-11-24T11:14:03.351Z,2.63
2022-11-24T11:16:35.545Z,3.05
2022-11-24T11:19:15.638Z,2.42
2022-11-24T11:21:42.531Z,3.33
2022-11-24T11:24:18.000Z,2.65
2022-11-24T11:26:44.773Z,2.75
2022-11-24T11:35:04.999Z,2.97
2022-11-24T11:37:33.544Z,2.92
2022-11-24T11:40:00.812Z,2.35
2022-11-24T11:45:29.236Z,2.63
2022-11-24T11:48:01.666Z,3.38
2022-11-24T11:50:59.179Z,3.00
2022-11-24T11:53:46.434Z,2.60
2022-11-24T11:56:44.202Z,3.63
2022-11-24T11:59:22.775Z,3.60
2022-11-24T12:02:12.470Z,2.67
2022-11-24T12:04:44.235Z,3.10
2022-11-24T12:07:39.798Z,3.92
2022-11-24T12:10:15.621Z,2.80
2022-11-24T12:13:21.106Z,2.70
2022-11-24T12:15:54.608Z,3.03
2022-11-24T12:18:58.220Z,3.40
2022-11-24T12:21:48.786Z,2.88
2022-11-24T12:24:40.345Z,3.60
2022-11-24T12:27:22.266Z,3.03
2022-11-24T12:30:14.090Z,3.05
2022-11-24T12:33:07.468Z,3.20
2022-11-24T12:35:42.630Z,2.85
2022-11-24T12:38:22.302Z,3.38
2022-11-24T12:44:32.201Z,3.65
2022-11-24T12:47:19.931Z,2.85
2022-11-24T12:50:01.834Z,2.70
2022-11-24T12:55:01.337Z,3.38
2022-11-24T12:57:34.890Z,2.83
2022-11-24T13:00:21.531Z,2.78
2022-11-24T13:03:15.771Z,2.80
2022-11-24T13:05:54.444Z,2.80
2022-11-24T13:08:22.434Z,3.10
2022-11-24T13:10:57.879Z,3.15
2022-11-24T13:13:35.435Z,2.50
2022-11-24T13:16:35.117Z,2.65
2022-11-24T13:19:23.903Z,3.50
2022-11-24T13:22:09.242Z,2.70
2022-11-24T13:24:38.773Z,3.33
2022-11-24T13:27:15.221Z,3.25
2022-11-24T13:29:43.868Z,3.67
2022-11-24T13:32:14.467Z,3.15
2022-11-24T13:34:41.042Z,3.85
2022-11-24T13:37:27.291Z,3.13
2022-11-24T13:40:11.648Z,2.60
2022-11-24T13:43:10.199Z,3.72
2022-11-24T13:45:40.206Z,3.58
2022-11-24T13:48:19.564Z,3.10
2022-11-24T13:50:55.978Z,2.78
2022-11-24T13:53:40.907Z,3.03
2022-11-24T13:56:13.671Z,2.70
2022-11-24T13:58:43.925Z,3.47
2022-11-24T14:01:22.649Z,3.17
2022-11-24T14:07:08.183Z,2.30
2022-11-24T14:09:44.967Z,2.97
2022-11-24T14:12:21.802Z,2.67
2022-11-24T14:14:50.105Z,3.55
2022-11-24T14:17:18.557Z,2.95
2022-11-24T14:19:56.574Z,4.18
2022-11-24T14:22:26.756Z,2.80
2022-11-24T14:24:58.606Z,3.45
2022-11-24T14:27:27.554Z,3.15
2022-11-24T14:30:00.691Z,3.45
2022-11-24T14:32:27.818Z,3.47
2022-11-24T14:34:55.465Z,3.22
2022-11-24T14:37:22.619Z,3.35
2022-11-24T14:39:49.259Z,2.67
2022-11-24T14:42:24.129Z,3.63
2022-11-24T14:44:56.294Z,2.78
2022-11-24T14:47:32.479Z,3.00
2022-11-24T14:50:13.611Z,3.70
2022-11-24T14:52:54.295Z,3.03
2022-11-24T14:55:31.902Z,2.60
2022-11-24T14:57:59.940Z,2.67
2022-11-24T15:00:32.321Z,2.65
2022-11-24T15:03:02.002Z,2.70
2022-11-24T15:05:53.268Z,4.15
2022-11-24T15:08:20.130Z,4.83
2022-11-24T15:10:47.000Z,2.70
2022-11-24T15:13:22.460Z,2.97
2022-11-24T15:16:02.767Z,4.38
2022-11-24T15:18:39.278Z,4.47
2022-11-24T15:21:06.063Z,4.15
2022-11-24T15:23:33.941Z,3.83
2022-11-24T15:26:03.795Z,2.75
2022-11-24T15:28:31.165Z,2.97
2022-11-24T15:31:03.190Z,3.42
2022-11-24T15:33:30.743Z,3.03
2022-11-24T15:35:57.499Z,3.42
2022-11-24T15:38:24.296Z,4.13
2022-11-24T15:40:53.203Z,2.95
2022-11-24T15:43:34.816Z,3.33
2022-11-24T15:46:03.131Z,2.90
2022-11-24T15:48:30.038Z,3.80
2022-11-24T15:50:58.073Z,3.22
2022-11-24T15:53:26.011Z,3.40
2022-11-24T15:55:53.081Z,2.90
2022-11-24T15:58:19.683Z,3.40
2022-11-24T16:00:46.322Z,2.78
2022-11-24T16:03:45.143Z,2.95
2022-11-24T16:05:59.862Z,2.40
2022-11-24T16:08:26.432Z,2.58
2022-11-24T16:10:53.057Z,3.35
2022-11-24T16:13:19.658Z,3.22
2022-11-24T16:15:46.746Z,5.15
2022-11-24T16:18:13.960Z,3.25
2022-11-24T16:20:40.580Z,3.50
2022-11-24T16:23:08.624Z,3.28
2022-11-24T16:25:35.407Z,4.18
2022-11-24T16:28:02.406Z,4.15
2022-11-24T16:30:29.101Z,4.00
2022-11-24T16:32:55.777Z,4.40
2022-11-24T16:35:22.442Z,4.90
2022-11-24T16:37:49.134Z,5.53
2022-11-24T16:40:15.972Z,5.60
2022-11-24T16:42:42.618Z,6.80
2022-11-24T16:45:12.251Z,5.00
2022-11-24T16:47:41.009Z,7.53
2022-11-24T16:50:09.318Z,5.43
2022-11-24T16:52:35.945Z,7.63
2022-11-24T16:55:02.682Z,5.53
2022-11-24T16:57:29.316Z,5.43
2022-11-24T16:59:55.952Z,2.65
2022-11-24T17:02:22.998Z,4.10
2022-11-24T17:04:52.174Z,3.28
2022-11-24T17:07:19.659Z,3.58
2022-11-24T17:09:46.329Z,3.25
2022-11-24T17:12:12.908Z,3.10
2022-11-24T17:14:39.524Z,4.15
2022-11-24T17:17:06.126Z,5.05
2022-11-24T17:19:32.903Z,3.47
2022-11-24T17:21:59.608Z,4.00
2022-11-24T17:24:26.241Z,4.05
2022-11-24T17:26:52.826Z,4.32
2022-11-24T17:29:19.622Z,3.75
2022-11-24T17:31:46.390Z,4.15
2022-11-24T17:34:13.373Z,3.88
2022-11-24T17:36:41.398Z,3.35
2022-11-24T17:39:09.078Z,4.10
2022-11-24T17:41:35.741Z,3.53
2022-11-24T17:44:03.724Z,4.03
2022-11-24T17:46:31.015Z,5.05
2022-11-24T17:48:58.236Z,4.15
2022-11-24T17:51:26.222Z,3.50
2022-11-24T17:53:54.757Z,4.50
2022-11-24T17:56:26.112Z,5.35
2022-11-24T17:58:57.715Z,4.78
2022-11-24T18:01:25.854Z,4.38
2022-11-24T18:03:53.825Z,3.28
2022-11-24T18:06:24.023Z,3.67
2022-11-24T18:08:51.103Z,3.38
2022-11-24T18:11:24.703Z,3.83
2022-11-24T18:14:00.685Z,3.45
2022-11-24T18:16:30.215Z,3.75
2022-11-24T18:19:14.078Z,4.07
2022-11-24T18:21:42.190Z,4.18
2022-11-24T18:24:10.273Z,4.20
2022-11-24T18:26:37.579Z,3.70
2022-11-24T18:29:04.674Z,3.47
2022-11-24T18:31:32.310Z,3.55
2022-11-24T18:33:59.421Z,3.28
2022-11-24T18:36:30.242Z,3.03
2022-11-24T18:38:59.765Z,3.72
2022-11-24T18:41:27.083Z,3.67
2022-11-24T18:43:53.881Z,3.50
2022-11-24T18:46:20.568Z,2.85
2022-11-24T18:48:47.370Z,3.47
2022-11-24T18:51:14.671Z,3.45
2022-11-24T18:53:42.977Z,3.65
2022-11-24T18:56:13.870Z,3.67
2022-11-24T18:58:40.555Z,3.42
2022-11-24T19:01:09.638Z,2.90
2022-11-24T19:03:42.331Z,3.35
2022-11-24T19:06:18.749Z,6.03
2022-11-24T19:08:46.031Z,3.58
2022-11-24T19:11:23.736Z,3.83
2022-11-24T19:13:51.287Z,3.50
2022-11-24T19:16:19.487Z,5.05
2022-11-24T19:18:53.122Z,3.80
2022-11-24T19:21:21.375Z,3.55
2022-11-24T19:23:48.258Z,3.42
2022-11-24T19:26:14.835Z,4.45
2022-11-24T19:28:41.399Z,3.65
2022-11-24T19:31:10.785Z,3.75
2022-11-24T19:33:37.500Z,3.55
2022-11-24T19:36:10.695Z,3.17
2022-11-24T19:38:37.465Z,3.70
2022-11-24T19:41:06.634Z,3.38
2022-11-24T19:43:34.009Z,3.60
2022-11-24T19:46:06.081Z,3.13
2022-11-24T19:48:34.221Z,3.88
2022-11-24T19:51:06.760Z,3.42
2022-11-24T19:53:34.595Z,3.30
2022-11-24T19:56:09.449Z,3.40
2022-11-24T19:58:36.471Z,3.55
2022-11-24T20:01:38.202Z,3.00
2022-11-24T20:04:07.932Z,3.67
2022-11-24T20:06:37.099Z,3.15
2022-11-24T20:09:06.687Z,3.78
2022-11-24T20:11:33.585Z,2.40
2022-11-24T20:14:00.429Z,3.22
2022-11-24T20:16:32.399Z,3.20
2022-11-24T20:21:28.879Z,2.70
2022-11-24T20:23:57.809Z,3.90
2022-11-24T20:26:26.253Z,3.67
2022-11-24T20:28:54.574Z,3.30
2022-11-24T20:31:23.966Z,2.88
2022-11-24T20:33:51.226Z,2.78
2022-11-24T20:36:23.435Z,3.88
2022-11-24T20:38:51.827Z,4.07
2022-11-24T20:41:21.814Z,3.00
2022-11-24T20:43:49.654Z,2.85
2022-11-24T20:46:21.986Z,3.40
2022-11-24T20:48:49.252Z,3.47
2022-11-24T20:51:20.917Z,3.47
2022-11-24T20:53:48.718Z,2.97
2022-11-24T20:56:27.226Z,3.17
2022-11-24T20:58:54.811Z,2.58
2022-11-24T21:01:25.059Z,3.10
2022-11-24T21:03:54.891Z,2.78
2022-11-24T21:06:21.806Z,2.60
2022-11-24T21:08:48.806Z,2.97
2022-11-24T21:11:15.613Z,3.58
2022-11-24T21:13:44.869Z,2.63
2022-11-24T21:16:24.911Z,2.92
2022-11-24T21:18:54.719Z,2.30
2022-11-24T21:21:23.092Z,2.65
2022-11-24T21:23:50.240Z,3.50
2022-11-24T21:26:18.549Z,2.47
2022-11-24T21:28:46.919Z,3.08
2022-11-24T21:31:16.907Z,2.75
2022-11-24T21:33:48.543Z,2.70
2022-11-24T21:36:17.987Z,2.72
2022-11-24T21:38:49.048Z,2.40
2022-11-24T21:41:15.686Z,2.72
2022-11-24T21:43:42.374Z,2.40
2022-11-24T21:46:11.262Z,2.53
2022-11-24T21:48:39.222Z,2.60
2022-11-24T21:51:08.244Z,2.45
2022-11-24T21:53:36.714Z,2.45
2022-11-24T21:56:06.822Z,3.95
2022-11-24T21:58:34.016Z,2.53
2022-11-24T22:01:06.197Z,3.33
2022-11-24T22:03:32.834Z,2.90
2022-11-24T22:06:00.985Z,2.75
2022-11-24T22:08:29.283Z,2.67
2022-11-24T22:11:07.994Z,2.63
2022-11-24T22:13:34.769Z,2.10
2022-11-24T22:16:06.682Z,2.63
2022-11-24T22:18:34.882Z,2.55
2022-11-24T22:21:02.806Z,2.47
2022-11-24T22:23:30.570Z,2.72
2022-11-24T22:26:06.198Z,2.53
2022-11-24T22:28:34.182Z,2.75
2022-11-24T22:31:09.307Z,2.40
2022-11-24T22:33:36.231Z,2.60
2022-11-24T22:36:03.253Z,2.65
2022-11-24T22:38:31.309Z,3.40
2022-11-24T22:41:03.001Z,3.55
2022-11-24T22:43:33.678Z,2.28
2022-11-24T22:46:08.547Z,2.70
2022-11-24T22:48:35.510Z,2.65
2022-11-24T22:51:06.510Z,3.65
2022-11-24T22:53:33.729Z,2.40
2022-11-24T22:56:19.585Z,3.50
2022-11-24T22:58:46.697Z,3.40
2022-11-24T23:01:15.382Z,3.42
2022-11-24T23:03:42.877Z,3.65
2022-11-24T23:06:21.844Z,3.13
2022-11-24T23:08:49.296Z,2.53
2022-11-24T23:11:32.647Z,2.80
2022-11-24T23:14:02.486Z,2.88
2022-11-24T23:16:30.007Z,2.90
2022-11-24T23:18:57.595Z,2.30
2022-11-24T23:21:26.614Z,2.78
2022-11-24T23:23:53.821Z,3.90
2022-11-24T23:26:22.859Z,3.42
2022-11-24T23:28:49.970Z,2.67
2022-11-24T23:31:19.742Z,2.70
2022-11-24T23:33:46.959Z,3.42
2022-11-24T23:36:19.099Z,2.85
2022-11-24T23:38:46.329Z,3.47
2022-11-24T23:41:16.545Z,3.15
2022-11-24T23:43:43.741Z,2.85
2022-11-24T23:46:13.191Z,3.17
2022-11-24T23:48:40.256Z,2.83
2022-11-24T23:51:21.317Z,3.50
2022-11-24T23:53:48.593Z,3.30
2022-11-24T23:56:23.585Z,2.92
2022-11-24T23:58:50.919Z,3.00
